createdAt,value
2018-03-19T00:02:16.315Z,101232.66
2018-03-19T00:04:42.155Z,101231.34
2018-03-19T00:07:08.056Z,101226.69
2018-03-19T00:09:33.871Z,101227.30
2018-03-19T00:11:59.681Z,101227.62
2018-03-19T00:14:25.508Z,101226.30
2018-03-19T00:16:51.368Z,101236.50
2018-03-19T00:19:17.183Z,101231.55
2018-03-19T00:21:51.939Z,101227.74
2018-03-19T00:24:17.782Z,101225.48
2018-03-19T00:26:44.479Z,101221.87
2018-03-19T00:29:10.300Z,101222.73
2018-03-19T00:31:36.102Z,101220.91
2018-03-19T00:34:01.911Z,101219.17
2018-03-19T00:36:27.764Z,101217.69
2018-03-19T00:38:53.573Z,101218.36
2018-03-19T00:41:19.383Z,101213.66
2018-03-19T00:43:45.186Z,101211.39
2018-03-19T00:46:10.990Z,101208.30
2018-03-19T00:48:36.795Z,101213.70
2018-03-19T00:51:02.599Z,101202.32
2018-03-19T00:53:28.414Z,101208.06
2018-03-19T00:55:54.222Z,101201.64
2018-03-19T00:58:20.053Z,101207.39
2018-03-19T01:00:46.695Z,101196.59
2018-03-19T01:03:12.550Z,101195.39
2018-03-19T01:05:38.353Z,101193.55
2018-03-19T01:08:04.168Z,101192.66
2018-03-19T01:10:30.078Z,101191.44
2018-03-19T01:12:55.884Z,101192.38
2018-03-19T01:15:22.605Z,101188.55
2018-03-19T01:17:51.490Z,101187.80
2018-03-19T01:20:18.262Z,101182.21
2018-03-19T01:22:45.071Z,101177.84
2018-03-19T01:25:10.913Z,101188.16
2018-03-19T01:27:36.754Z,101185.05
2018-03-19T01:30:02.583Z,101185.64
2018-03-19T01:32:28.432Z,101172.84
2018-03-19T01:34:54.242Z,101175.38
2018-03-19T01:37:20.874Z,101179.27
2018-03-19T01:39:47.654Z,101180.70
2018-03-19T01:42:13.498Z,101170.27
2018-03-19T01:44:40.162Z,101171.49
2018-03-19T01:47:05.969Z,101170.16
2018-03-19T01:49:31.770Z,101167.95
2018-03-19T01:51:57.628Z,101165.87
2018-03-19T01:54:23.435Z,101160.52
2018-03-19T01:56:49.278Z,101162.47
2018-03-19T01:59:15.117Z,101161.77
2018-03-19T02:01:41.762Z,101153.33
2018-03-19T02:04:07.587Z,101150.81
2018-03-19T02:06:33.399Z,101152.19
2018-03-19T02:08:59.253Z,101156.27
2018-03-19T02:11:25.067Z,101153.81
2018-03-19T02:13:50.883Z,101152.84
2018-03-19T02:16:16.704Z,101151.02
2018-03-19T02:18:42.523Z,101152.88
2018-03-19T02:21:08.375Z,101150.68
2018-03-19T02:23:34.180Z,101150.59
2018-03-19T02:25:59.990Z,101144.97
2018-03-19T02:28:25.803Z,101150.05
2018-03-19T02:30:51.625Z,101147.51
2018-03-19T02:33:17.447Z,101146.31
2018-03-19T02:35:43.265Z,101147.00
2018-03-19T02:38:09.089Z,101152.52
2018-03-19T02:40:34.934Z,101145.39
2018-03-19T02:43:00.750Z,101145.13
2018-03-19T02:45:26.567Z,101142.18
2018-03-19T02:47:52.383Z,101144.41
2018-03-19T02:50:18.198Z,101148.16
2018-03-19T02:52:44.080Z,101150.30
2018-03-19T02:55:09.938Z,101147.23
2018-03-19T02:57:35.751Z,101148.48
2018-03-19T03:00:01.579Z,101153.72
2018-03-19T03:02:27.405Z,101155.13
2018-03-19T03:04:53.222Z,101150.75
2018-03-19T03:07:19.047Z,101152.27
2018-03-19T03:09:44.896Z,101153.47
2018-03-19T03:12:10.743Z,101149.16
2018-03-19T03:14:36.554Z,101148.30
2018-03-19T03:17:02.443Z,101158.37
2018-03-19T03:19:28.254Z,101159.06
2018-03-19T03:21:54.070Z,101156.07
2018-03-19T03:24:19.906Z,101153.69
2018-03-19T03:26:45.720Z,101151.39
2018-03-19T03:29:11.535Z,101154.64
2018-03-19T03:31:37.392Z,101153.66
2018-03-19T03:34:03.214Z,101151.75
2018-03-19T03:36:29.151Z,101151.56
2018-03-19T03:38:54.970Z,101155.29
2018-03-19T03:41:20.796Z,101154.06
2018-03-19T03:43:46.606Z,101153.03
2018-03-19T03:46:12.416Z,101156.23
2018-03-19T03:48:38.265Z,101160.07
2018-03-19T03:51:04.073Z,101159.77
2018-03-19T03:53:29.883Z,101153.69
2018-03-19T03:55:55.695Z,101152.94
2018-03-19T03:58:21.551Z,101163.72
2018-03-19T04:00:47.349Z,101158.33
2018-03-19T04:03:13.167Z,101157.37
2018-03-19T04:05:39.022Z,101157.11
2018-03-19T04:08:04.831Z,101151.77
2018-03-19T04:10:30.749Z,101146.41
2018-03-19T04:12:56.594Z,101146.36
2018-03-19T04:15:22.404Z,101149.81
2018-03-19T04:17:48.252Z,101151.22
2018-03-19T04:20:14.098Z,101155.21
2018-03-19T04:22:39.922Z,101152.39
2018-03-19T04:25:05.786Z,101149.01
2018-03-19T04:27:31.642Z,101146.83
2018-03-19T04:29:57.447Z,101145.08
2018-03-19T04:32:23.255Z,101152.95
2018-03-19T04:34:49.086Z,101153.02
2018-03-19T04:37:14.979Z,101146.78
2018-03-19T04:39:40.819Z,101145.17
2018-03-19T04:42:06.676Z,101153.22
2018-03-19T04:44:32.535Z,101144.53
2018-03-19T04:46:58.350Z,101148.66
2018-03-19T04:49:24.158Z,101138.73
2018-03-19T04:51:49.970Z,101145.25
2018-03-19T04:54:15.815Z,101141.39
2018-03-19T04:56:41.627Z,101149.34
2018-03-19T04:59:07.451Z,101149.11
2018-03-19T05:01:33.263Z,101145.78
2018-03-19T05:03:59.094Z,101143.96
2018-03-19T05:06:24.947Z,101151.02
2018-03-19T05:08:50.787Z,101150.98
2018-03-19T05:11:16.686Z,101149.27
2018-03-19T05:13:42.502Z,101151.56
2018-03-19T05:16:08.325Z,101151.30
2018-03-19T05:18:34.177Z,101146.28
2018-03-19T05:20:59.997Z,101156.40
2018-03-19T05:23:25.816Z,101150.27
2018-03-19T05:25:51.630Z,101162.11
2018-03-19T05:28:17.447Z,101161.08
2018-03-19T05:30:43.263Z,101155.15
2018-03-19T05:33:09.088Z,101163.31
2018-03-19T05:35:34.907Z,101158.97
2018-03-19T05:38:00.718Z,101167.03
2018-03-19T05:40:26.575Z,101160.44
2018-03-19T05:42:52.432Z,101162.42
2018-03-19T05:45:20.410Z,101162.25
2018-03-19T05:47:46.259Z,101155.95
2018-03-19T05:50:12.075Z,101158.17
2018-03-19T05:52:37.898Z,101154.40
2018-03-19T05:55:03.728Z,101153.32
2018-03-19T05:57:29.641Z,101161.91
2018-03-19T05:59:55.473Z,101154.48
2018-03-19T06:02:21.304Z,101157.20
2018-03-19T06:04:47.150Z,101162.69
2018-03-19T06:07:12.963Z,101158.45
2018-03-19T06:09:38.822Z,101169.20
2018-03-19T06:12:04.655Z,101164.66
2018-03-19T06:14:30.494Z,101163.95
2018-03-19T06:16:56.315Z,101165.41
2018-03-19T06:19:22.253Z,101167.39
2018-03-19T06:21:48.062Z,101165.81
2018-03-19T06:24:13.879Z,101170.36
2018-03-19T06:26:39.701Z,101170.80
2018-03-19T06:29:05.528Z,101178.51
2018-03-19T06:31:31.337Z,101180.09
2018-03-19T06:33:57.164Z,101174.98
2018-03-19T06:36:22.979Z,101180.70
2018-03-19T06:38:48.817Z,101180.94
2018-03-19T06:41:14.627Z,101177.30
2018-03-19T06:43:40.491Z,101176.62
2018-03-19T06:46:06.310Z,101180.25
2018-03-19T06:48:32.169Z,101174.16
2018-03-19T06:50:58.004Z,101188.17
2018-03-19T06:53:23.828Z,101180.61
2018-03-19T06:55:49.644Z,101180.83
2018-03-19T06:58:15.504Z,101175.14
2018-03-19T07:00:41.322Z,101166.55
2018-03-19T07:03:07.139Z,101177.30
2018-03-19T07:05:32.951Z,101173.38
2018-03-19T07:07:58.773Z,101175.45
2018-03-19T07:10:24.638Z,101175.36
2018-03-19T07:12:50.460Z,101177.46
2018-03-19T07:15:16.320Z,101169.69
2018-03-19T07:17:42.147Z,101170.66
2018-03-19T07:20:07.969Z,101173.74
2018-03-19T07:22:33.816Z,101179.34
2018-03-19T07:24:59.668Z,101174.47
2018-03-19T07:27:25.529Z,101173.65
2018-03-19T07:29:51.346Z,101175.64
2018-03-19T07:32:17.217Z,101176.77
2018-03-19T07:34:43.134Z,101176.04
2018-03-19T07:37:08.986Z,101170.02
2018-03-19T07:39:34.803Z,101175.13
2018-03-19T07:42:00.707Z,101177.09
2018-03-19T07:44:26.564Z,101169.67
2018-03-19T07:46:52.375Z,101164.62
2018-03-19T07:49:18.231Z,101176.80
2018-03-19T07:51:44.127Z,101162.73
2018-03-19T07:54:09.939Z,101162.86
2018-03-19T07:56:53.165Z,101163.00
2018-03-19T07:59:22.547Z,101161.80
2018-03-19T08:01:48.891Z,101160.53
2018-03-19T08:04:16.832Z,101163.32
2018-03-19T08:06:42.727Z,101159.22
2018-03-19T08:09:08.577Z,101155.11
2018-03-19T08:11:34.492Z,101156.39
2018-03-19T08:14:00.301Z,101157.34
2018-03-19T08:16:28.263Z,101151.55
2018-03-19T08:18:54.078Z,101153.34
2018-03-19T08:21:19.940Z,101146.88
2018-03-19T08:23:45.810Z,101149.30
2018-03-19T08:26:11.629Z,101148.93
2018-03-19T08:28:37.437Z,101144.43
2018-03-19T08:31:03.295Z,101142.85
2018-03-19T08:33:29.163Z,101138.66
2018-03-19T08:35:55.029Z,101134.04
2018-03-19T08:38:20.843Z,101142.17
2018-03-19T08:40:46.663Z,101137.60
2018-03-19T08:43:12.518Z,101137.80
2018-03-19T08:45:38.387Z,101137.54
2018-03-19T08:48:04.232Z,101138.39
2018-03-19T08:50:30.114Z,101132.88
2018-03-19T08:52:55.948Z,101139.08
2018-03-19T08:55:21.841Z,101135.76
2018-03-19T08:57:47.662Z,101134.61
2018-03-19T09:00:13.519Z,101125.58
2018-03-19T09:02:40.190Z,101119.99
2018-03-19T09:05:06.007Z,101130.77
2018-03-19T09:07:31.827Z,101126.25
2018-03-19T09:09:57.640Z,101131.98
2018-03-19T09:12:23.507Z,101129.98
2018-03-19T09:14:49.323Z,101128.55
2018-03-19T09:17:15.154Z,101125.36
2018-03-19T09:19:40.971Z,101126.10
2018-03-19T09:22:06.811Z,101128.63
2018-03-19T09:24:32.674Z,101126.31
2018-03-19T09:26:58.487Z,101114.97
2018-03-19T09:29:24.315Z,101121.47
2018-03-19T09:31:50.156Z,101120.69
2018-03-19T09:34:16.084Z,101120.75
2018-03-19T09:36:41.985Z,101116.96
2018-03-19T09:39:07.816Z,101109.03
2018-03-19T09:41:33.660Z,101117.55
2018-03-19T09:43:59.572Z,101115.64
2018-03-19T09:46:25.401Z,101107.09
2018-03-19T09:48:52.067Z,101110.98
2018-03-19T09:51:18.748Z,101109.19
2018-03-19T09:53:44.576Z,101107.51
2018-03-19T09:56:10.391Z,101107.20
2018-03-19T09:58:36.247Z,101108.66
2018-03-19T10:01:02.079Z,101112.86
2018-03-19T10:03:27.907Z,101100.37
2018-03-19T10:05:53.874Z,101103.21
2018-03-19T10:08:19.750Z,101105.31
2018-03-19T10:10:45.608Z,101102.38
2018-03-19T10:13:11.544Z,101108.67
2018-03-19T10:15:37.358Z,101097.91
2018-03-19T10:18:03.292Z,101095.28
2018-03-19T10:20:29.196Z,101096.59
2018-03-19T10:22:55.120Z,101091.45
2018-03-19T10:25:20.949Z,101082.68
2018-03-19T10:27:46.792Z,101094.86
2018-03-19T10:30:12.650Z,101091.70
2018-03-19T10:32:38.508Z,101080.02
2018-03-19T10:35:04.330Z,101079.95
2018-03-19T10:37:30.148Z,101079.05
2018-03-19T10:39:55.996Z,101075.12
2018-03-19T10:42:21.816Z,101074.39
2018-03-19T10:44:47.634Z,101064.04
2018-03-19T10:47:13.491Z,101066.02
2018-03-19T10:49:39.303Z,101065.81
2018-03-19T10:52:05.136Z,101064.67
2018-03-19T10:54:30.952Z,101056.00
2018-03-19T10:56:56.783Z,101056.69
2018-03-19T10:59:22.599Z,101056.77
2018-03-19T11:01:54.565Z,101046.94
2018-03-19T11:04:20.396Z,101047.36
2018-03-19T11:06:49.260Z,101039.99
2018-03-19T11:09:21.264Z,101039.55
2018-03-19T11:11:47.091Z,101035.86
2018-03-19T11:14:12.950Z,101039.16
2018-03-19T11:16:38.808Z,101040.58
2018-03-19T11:19:04.616Z,101033.01
2018-03-19T11:21:30.470Z,101033.25
2018-03-19T11:23:56.376Z,101022.91
2018-03-19T11:26:22.238Z,101018.72
2018-03-19T11:28:48.056Z,101013.77
2018-03-19T11:31:13.886Z,101014.66
2018-03-19T11:33:39.699Z,101016.37
2018-03-19T11:36:05.518Z,101005.49
2018-03-19T11:38:31.359Z,101009.87
2018-03-19T11:40:57.193Z,101003.64
2018-03-19T11:43:23.314Z,100999.19
2018-03-19T11:45:49.439Z,100999.37
2018-03-19T11:48:15.306Z,101001.48
2018-03-19T11:50:41.154Z,101001.44
2018-03-19T11:53:06.995Z,100988.13
2018-03-19T11:55:32.818Z,100981.94
2018-03-19T11:57:58.634Z,100985.09
2018-03-19T12:00:26.155Z,100983.60
2018-03-19T12:02:52.649Z,100979.63
2018-03-19T12:05:18.549Z,100975.33
2018-03-19T12:07:44.364Z,100968.98
2018-03-19T12:10:10.239Z,100969.45
2018-03-19T12:12:36.087Z,100966.33
2018-03-19T12:15:01.951Z,100961.11
2018-03-19T12:17:27.804Z,100958.13
2018-03-19T12:19:53.615Z,100959.00
2018-03-19T12:22:19.435Z,100954.05
2018-03-19T12:24:45.278Z,100949.91
2018-03-19T12:27:11.175Z,100954.78
2018-03-19T12:29:37.140Z,100945.98
2018-03-19T12:32:03.000Z,100945.23
2018-03-19T12:34:28.824Z,100934.58
2018-03-19T12:36:54.798Z,100923.25
2018-03-19T12:39:20.623Z,100926.14
2018-03-19T12:41:46.438Z,100923.31
2018-03-19T12:44:12.257Z,100917.14
2018-03-19T12:46:38.071Z,100919.00
2018-03-19T12:49:03.891Z,100916.13
2018-03-19T12:51:30.754Z,100911.55
2018-03-19T12:53:56.624Z,100914.73
2018-03-19T12:56:22.435Z,100906.66
2018-03-19T12:58:48.286Z,100902.25
2018-03-19T13:01:14.115Z,100897.09
2018-03-19T13:03:39.976Z,100892.27
2018-03-19T13:06:05.786Z,100888.27
2018-03-19T13:08:31.636Z,100895.61
2018-03-19T13:10:57.498Z,100891.66
2018-03-19T13:13:23.358Z,100883.68
2018-03-19T13:15:49.177Z,100884.42
2018-03-19T13:18:15.052Z,100886.61
2018-03-19T13:20:40.866Z,100888.06
2018-03-19T13:23:07.792Z,100885.30
2018-03-19T13:25:33.608Z,100883.37
2018-03-19T13:27:59.435Z,100889.48
2018-03-19T13:30:25.247Z,100880.87
2018-03-19T13:32:51.070Z,100875.75
2018-03-19T13:35:16.891Z,100877.61
2018-03-19T13:37:42.711Z,100874.62
2018-03-19T13:40:08.623Z,100869.50
2018-03-19T13:42:34.435Z,100867.27
2018-03-19T13:45:00.297Z,100867.37
2018-03-19T13:47:26.108Z,100869.47
2018-03-19T13:49:52.063Z,100858.48
2018-03-19T13:52:17.881Z,100857.47
2018-03-19T13:54:43.694Z,100853.23
2018-03-19T13:57:09.506Z,100863.25
2018-03-19T13:59:35.362Z,100856.00
2018-03-19T14:02:01.178Z,100855.26
2018-03-19T14:04:26.995Z,100849.67
2018-03-19T14:06:52.874Z,100850.95
2018-03-19T14:09:18.695Z,100845.30
2018-03-19T14:11:44.570Z,100842.42
2018-03-19T14:14:10.386Z,100832.70
2018-03-19T14:16:36.239Z,100849.22
2018-03-19T14:19:02.058Z,100837.13
2018-03-19T14:21:28.061Z,100839.52
2018-03-19T14:23:53.974Z,100845.25
2018-03-19T14:26:19.882Z,100837.92
2018-03-19T14:28:45.767Z,100829.58
2018-03-19T14:31:11.598Z,100830.75
2018-03-19T14:33:37.415Z,100828.91
2018-03-19T14:36:03.235Z,100836.71
2018-03-19T14:38:29.058Z,100832.95
2018-03-19T14:40:54.904Z,100828.89
2018-03-19T14:43:20.726Z,100827.41
2018-03-19T14:45:46.582Z,100824.21
2018-03-19T14:48:12.402Z,100820.78
2018-03-19T14:50:38.352Z,100818.16
2018-03-19T14:53:04.142Z,100817.56
2018-03-19T14:55:29.994Z,100813.55
2018-03-19T14:57:55.814Z,100810.69
2018-03-19T15:00:21.672Z,100805.95
2018-03-19T15:02:47.486Z,100811.70
2018-03-19T15:05:13.370Z,100810.73
2018-03-19T15:07:39.194Z,100807.58
2018-03-19T15:10:05.012Z,100803.27
2018-03-19T15:12:30.828Z,100804.38
2018-03-19T15:14:56.684Z,100802.45
2018-03-19T15:17:22.563Z,100795.33
2018-03-19T15:19:48.385Z,100799.22
2018-03-19T15:22:14.247Z,100795.47
2018-03-19T15:24:40.059Z,100789.48
2018-03-19T15:27:05.874Z,100788.84
2018-03-19T15:29:31.705Z,100789.20
2018-03-19T15:31:57.571Z,100794.44
2018-03-19T15:34:23.461Z,100791.39
2018-03-19T15:36:49.303Z,100788.94
2018-03-19T15:39:15.117Z,100787.55
2018-03-19T15:41:40.979Z,100787.33
2018-03-19T15:44:06.802Z,100784.78
2018-03-19T15:46:32.614Z,100785.13
2018-03-19T15:48:58.431Z,100773.66
2018-03-19T15:51:24.400Z,100770.79
2018-03-19T15:53:50.222Z,100768.11
2018-03-19T15:56:16.040Z,100769.89
2018-03-19T15:58:41.894Z,100770.55
2018-03-19T16:01:07.710Z,100767.44
2018-03-19T16:03:33.522Z,100770.14
2018-03-19T16:05:59.382Z,100770.20
2018-03-19T16:08:25.218Z,100770.98
2018-03-19T16:10:51.068Z,100770.44
2018-03-19T16:13:16.915Z,100764.24
2018-03-19T16:15:42.735Z,100773.72
2018-03-19T16:18:08.552Z,100770.34
2018-03-19T16:20:34.412Z,100773.13
2018-03-19T16:23:00.238Z,100771.99
2018-03-19T16:25:26.061Z,100773.38
2018-03-19T16:27:51.902Z,100771.95
2018-03-19T16:30:17.727Z,100770.20
2018-03-19T16:32:43.542Z,100773.95
2018-03-19T16:35:09.389Z,100776.59
2018-03-19T16:37:35.248Z,100775.58
2018-03-19T16:40:01.106Z,100776.23
2018-03-19T16:42:26.937Z,100773.72
2018-03-19T16:44:52.755Z,100778.56
2018-03-19T16:47:18.576Z,100775.47
2018-03-19T16:49:44.395Z,100775.39
2018-03-19T16:52:10.216Z,100780.61
2018-03-19T16:54:36.039Z,100773.23
2018-03-19T16:57:01.896Z,100779.34
2018-03-19T16:59:27.711Z,100779.05
2018-03-19T17:01:53.539Z,100787.33
2018-03-19T17:04:19.371Z,100790.39
2018-03-19T17:06:45.230Z,100785.08
2018-03-19T17:09:11.047Z,100785.80
2018-03-19T17:11:36.863Z,100780.23
2018-03-19T17:14:02.785Z,100783.11
2018-03-19T17:16:28.706Z,100782.20
2018-03-19T17:18:54.568Z,100789.42
2018-03-19T17:21:20.379Z,100793.86
2018-03-19T17:23:46.223Z,100790.49
2018-03-19T17:26:12.055Z,100791.41
2018-03-19T17:28:38.024Z,100790.20
2018-03-19T17:31:05.274Z,100793.56
2018-03-19T17:33:31.189Z,100794.13
2018-03-19T17:35:57.002Z,100793.42
2018-03-19T17:38:22.922Z,100798.63
2018-03-19T17:40:48.738Z,100802.14
2018-03-19T17:43:14.550Z,100804.13
2018-03-19T17:45:40.399Z,100805.38
2018-03-19T17:48:06.247Z,100811.95
2018-03-19T17:50:32.082Z,100807.05
2018-03-19T17:52:57.899Z,100813.37
2018-03-19T17:55:23.763Z,100809.84
2018-03-19T17:57:50.516Z,100814.67
2018-03-19T18:03:00.750Z,100810.43
2018-03-19T18:05:26.583Z,100821.01
2018-03-19T18:07:52.407Z,100815.81
2018-03-19T18:10:18.229Z,100818.88
2018-03-19T18:12:44.067Z,100821.72
2018-03-19T18:15:09.887Z,100827.13
2018-03-19T18:17:35.710Z,100817.92
2018-03-19T18:20:01.544Z,100826.95
2018-03-19T18:22:27.387Z,100828.12
2018-03-19T18:24:53.207Z,100831.05
2018-03-19T18:27:19.043Z,100829.80
2018-03-19T18:29:44.906Z,100832.61
2018-03-19T18:32:10.735Z,100827.30
2018-03-19T18:34:36.546Z,100834.81
2018-03-19T18:37:02.390Z,100834.27
2018-03-19T18:39:28.207Z,100832.84
2018-03-19T18:41:54.027Z,100828.25
2018-03-19T18:44:19.863Z,100829.20
2018-03-19T18:46:45.673Z,100840.91
2018-03-19T18:49:11.490Z,100830.74
2018-03-19T18:51:37.331Z,100832.55
2018-03-19T18:54:03.147Z,100835.40
2018-03-19T18:56:28.951Z,100834.09
2018-03-19T18:58:54.766Z,100830.51
2018-03-19T19:01:20.642Z,100825.36
2018-03-19T19:03:46.482Z,100835.72
2018-03-19T19:06:12.343Z,100834.70
2018-03-19T19:08:38.435Z,100836.18
2018-03-19T19:11:04.300Z,100838.99
2018-03-19T19:13:30.392Z,100835.53
2018-03-19T19:15:56.231Z,100836.91
2018-03-19T19:18:22.316Z,100835.36
2018-03-19T19:20:48.143Z,100835.95
2018-03-19T19:23:13.981Z,100838.16
2018-03-19T19:25:40.021Z,100835.34
2018-03-19T19:28:05.871Z,100833.80
2018-03-19T19:30:31.844Z,100834.92
2018-03-19T19:32:57.707Z,100838.73
2018-03-19T19:35:23.551Z,100841.38
2018-03-19T19:37:49.454Z,100837.30
2018-03-19T19:40:15.260Z,100836.48
2018-03-19T19:42:41.115Z,100843.57
2018-03-19T19:45:06.982Z,100834.56
2018-03-19T19:47:32.836Z,100834.67
2018-03-19T19:49:58.689Z,100833.01
2018-03-19T19:52:24.567Z,100831.86
2018-03-19T19:54:50.426Z,100827.97
2018-03-19T19:57:16.244Z,100832.46
2018-03-19T19:59:42.068Z,100832.41
2018-03-19T20:02:07.902Z,100829.44
2018-03-19T20:04:33.823Z,100828.23
2018-03-19T20:06:59.649Z,100826.70
2018-03-19T20:09:25.508Z,100825.92
2018-03-19T20:11:51.499Z,100824.66
2018-03-19T20:14:17.328Z,100822.27
2018-03-19T20:16:43.151Z,100820.13
2018-03-19T20:19:08.974Z,100822.68
2018-03-19T20:21:34.808Z,100821.50
2018-03-19T20:24:00.642Z,100819.53
2018-03-19T20:26:26.691Z,100816.48
2018-03-19T20:28:52.518Z,100814.86
2018-03-19T20:31:18.394Z,100816.72
2018-03-19T20:33:44.211Z,100817.48
2018-03-19T20:36:10.340Z,100817.30
2018-03-19T20:38:37.251Z,100812.67
2018-03-19T20:41:03.074Z,100815.88
2018-03-19T20:43:28.920Z,100814.86
2018-03-19T20:45:54.735Z,100815.45
2018-03-19T20:48:20.550Z,100813.78
2018-03-19T20:50:46.481Z,100809.97
2018-03-19T20:53:12.315Z,100810.27
2018-03-19T20:55:38.140Z,100806.61
2018-03-19T20:58:03.998Z,100808.17
2018-03-19T21:00:29.816Z,100802.91
2018-03-19T21:02:55.631Z,100805.43
2018-03-19T21:05:21.477Z,100799.68
2018-03-19T21:07:48.315Z,100797.42
2018-03-19T21:10:14.138Z,100796.05
2018-03-19T21:12:39.983Z,100789.47
2018-03-19T21:15:05.807Z,100794.55
2018-03-19T21:17:31.642Z,100786.97
2018-03-19T21:19:57.536Z,100787.22
2018-03-19T21:22:23.357Z,100783.22
2018-03-19T21:24:49.212Z,100773.27
2018-03-19T21:27:15.032Z,100776.34
2018-03-19T21:29:40.855Z,100773.06
2018-03-19T21:32:06.696Z,100775.08
2018-03-19T21:34:32.515Z,100764.89
2018-03-19T21:36:58.355Z,100763.69
2018-03-19T21:39:24.174Z,100764.64
2018-03-19T21:41:49.994Z,100765.94
2018-03-19T21:44:15.821Z,100759.09
2018-03-19T21:46:41.643Z,100759.76
2018-03-19T21:49:07.467Z,100760.81
2018-03-19T21:51:33.287Z,100756.65
2018-03-19T21:53:59.107Z,100756.12
2018-03-19T21:56:24.939Z,100751.09
2018-03-19T21:58:50.830Z,100747.09
2018-03-19T22:01:16.667Z,100749.36
2018-03-19T22:03:42.483Z,100747.45
2018-03-19T22:06:08.302Z,100748.87
2018-03-19T22:08:34.185Z,100751.05
2018-03-19T22:11:00.019Z,100749.62
2018-03-19T22:13:25.847Z,100748.52
2018-03-19T22:15:51.686Z,100744.84
2018-03-19T22:18:17.504Z,100744.64
2018-03-19T22:20:43.329Z,100753.08
2018-03-19T22:23:09.174Z,100748.78
2018-03-19T22:25:35.013Z,100751.16
2018-03-19T22:28:00.852Z,100746.51
2018-03-19T22:30:26.672Z,100748.66
2018-03-19T22:32:52.489Z,100752.13
2018-03-19T22:35:18.315Z,100745.98
2018-03-19T22:37:44.128Z,100745.14
2018-03-19T22:40:09.953Z,100736.78
2018-03-19T22:42:35.760Z,100736.41
2018-03-19T22:45:01.574Z,100730.57
2018-03-19T22:47:27.426Z,100730.78
2018-03-19T22:49:53.233Z,100727.52
2018-03-19T22:52:19.038Z,100726.16
2018-03-19T22:54:44.843Z,100719.87
2018-03-19T22:57:10.646Z,100714.80
2018-03-19T22:59:36.518Z,100715.50
2018-03-19T23:02:02.327Z,100712.28
2018-03-19T23:04:34.251Z,100706.68
2018-03-19T23:07:00.067Z,100703.93
2018-03-19T23:09:25.915Z,100702.33
2018-03-19T23:11:51.762Z,100703.82
2018-03-19T23:14:17.574Z,100701.48
2018-03-19T23:16:43.389Z,100700.25
2018-03-19T23:19:09.194Z,100700.52
2018-03-19T23:21:35.008Z,100699.67
2018-03-19T23:24:00.853Z,100699.41
2018-03-19T23:26:26.664Z,100700.30
2018-03-19T23:28:52.566Z,100699.47
2018-03-19T23:31:18.414Z,100699.78
2018-03-19T23:33:44.217Z,100697.83
2018-03-19T23:36:10.058Z,100695.11
2018-03-19T23:38:35.874Z,100697.33
2018-03-19T23:41:01.718Z,100696.36
2018-03-19T23:43:27.558Z,100689.81
2018-03-19T23:45:53.415Z,100691.91
2018-03-19T23:48:20.068Z,100691.54
2018-03-19T23:50:45.888Z,100689.89
2018-03-19T23:53:11.698Z,100691.14
2018-03-19T23:55:37.506Z,100682.42
2018-03-19T23:58:03.318Z,100680.16
